Time;durP1;ratioP1;P1;durP2;ratioP2;P2;SDS_P1;SDS_P2;PMS_P1;PMS_P2;Temp;Humidity;BMP_temperature;BMP_pressure;BME280_temperature;BME280_humidity;BME280_pressure;Samples;Min_cycle;Max_cycle;Signal;HPM_P1;HPM_P2
2023/03/02 00:00:39;;;;;;;18.83;11.93;;;3.40;99.90;;;;;;5072949;28;20036;-59
2023/03/02 00:03:05;;;;;;;17.65;11.98;;;3.30;99.90;;;;;;5072763;28;20044;-59
2023/03/02 00:05:32;;;;;;;21.52;13.40;;;2.90;99.90;;;;;;5072940;28;20033;-59
2023/03/02 00:07:59;;;;;;;22.88;13.52;;;2.90;99.90;;;;;;5072699;28;20047;-59
2023/03/02 00:10:25;;;;;;;19.75;13.80;;;3.00;99.90;;;;;;5072883;28;20060;-58
2023/03/02 00:12:51;;;;;;;23.63;14.80;;;2.90;99.90;;;;;;5072738;28;20090;-59
2023/03/02 00:15:17;;;;;;;21.17;14.10;;;2.80;99.90;;;;;;5072649;28;20382;-58
2023/03/02 00:17:42;;;;;;;20.20;13.40;;;3.30;99.90;;;;;;5072558;28;20074;-58
2023/03/02 00:20:12;;;;;;;16.83;10.57;;;3.10;99.90;;;;;;5071029;28;20032;-60
2023/03/02 00:22:39;;;;;;;14.02;9.75;;;3.30;99.90;;;;;;5073120;28;20074;-60
2023/03/02 00:25:05;;;;;;;14.63;9.48;;;3.20;99.90;;;;;;5072542;28;20390;-59
2023/03/02 00:27:31;;;;;;;16.30;10.07;;;2.90;99.90;;;;;;5072290;28;20041;-58
2023/03/02 00:29:57;;;;;;;13.52;9.38;;;3.30;99.90;;;;;;5072319;28;20167;-59
2023/03/02 00:32:23;;;;;;;13.52;9.45;;;2.90;99.90;;;;;;5072843;28;20059;-58
2023/03/02 00:34:49;;;;;;;14.23;8.65;;;3.00;99.90;;;;;;5070050;28;20102;-58
2023/03/02 00:37:15;;;;;;;14.10;8.27;;;2.90;99.90;;;;;;5072355;28;20423;-58
2023/03/02 00:39:41;;;;;;;13.32;8.55;;;3.20;99.90;;;;;;5072213;28;20405;-59
2023/03/02 00:42:06;;;;;;;15.13;8.60;;;3.10;99.90;;;;;;5072263;28;20036;-58
2023/03/02 00:44:32;;;;;;;14.20;8.57;;;3.00;99.90;;;;;;5071987;28;20040;-58
2023/03/02 00:46:57;;;;;;;12.57;7.53;;;2.50;99.90;;;;;;5072142;28;20401;-58
2023/03/02 00:49:23;;;;;;;13.15;7.78;;;2.70;99.90;;;;;;5072214;28;20041;-58
2023/03/02 00:51:49;;;;;;;12.32;7.85;;;2.90;99.90;;;;;;5070722;28;20667;-58
2023/03/02 00:54:14;;;;;;;13.00;7.85;;;2.70;99.90;;;;;;5071985;28;20040;-58
2023/03/02 00:56:41;;;;;;;12.38;7.50;;;2.50;99.90;;;;;;5071891;28;20098;-58
2023/03/02 00:59:25;;;;;;;16.67;7.80;;;2.60;99.90;;;;;;5071925;28;20149;-58
2023/03/02 01:01:59;;;;;;;11.38;7.82;;;2.40;99.90;;;;;;5070984;28;20047;-58
2023/03/02 01:04:30;;;;;;;11.55;7.50;;;2.50;99.90;;;;;;5072063;28;20044;-58
2023/03/02 01:07:17;;;;;;;11.75;8.27;;;2.40;99.90;;;;;;5071702;28;20123;-58
2023/03/02 01:09:44;;;;;;;13.90;8.27;;;2.20;99.90;;;;;;5071695;28;20044;-58
2023/03/02 01:12:10;;;;;;;12.07;7.82;;;2.70;99.90;;;;;;5071691;28;20033;-58
2023/03/02 01:14:42;;;;;;;12.23;8.07;;;2.60;99.90;;;;;;5070374;28;20044;-58
2023/03/02 01:17:09;;;;;;;;;;;2.50;99.90;;;;;;5072282;28;20036;-58
2023/03/02 01:19:35;;;;;;;11.23;6.70;;;2.20;99.90;;;;;;5071609;28;20386;-58
2023/03/02 01:22:01;;;;;;;12.32;7.55;;;2.60;99.90;;;;;;5071772;28;20119;-58
2023/03/02 01:24:27;;;;;;;12.95;7.20;;;2.60;99.90;;;;;;5071717;28;20121;-58
2023/03/02 01:26:53;;;;;;;11.77;7.40;;;2.30;99.90;;;;;;5070535;28;20079;-58
2023/03/02 01:29:19;;;;;;;12.85;7.30;;;2.40;99.90;;;;;;5071857;28;20041;-58
2023/03/02 01:31:44;;;;;;;10.68;7.32;;;2.10;99.90;;;;;;5071829;28;20515;-58
2023/03/02 01:34:10;;;;;;;11.15;7.47;;;2.20;99.90;;;;;;5071602;28;20045;-58
2023/03/02 01:36:36;;;;;;;16.48;8.95;;;2.30;99.90;;;;;;5071741;28;20071;-58
2023/03/02 01:39:03;;;;;;;11.20;6.88;;;2.60;99.90;;;;;;5071555;28;20098;-58
2023/03/02 01:41:28;;;;;;;13.68;7.68;;;2.70;99.90;;;;;;5071866;28;20044;-58
2023/03/02 01:43:54;;;;;;;12.20;7.50;;;2.20;99.90;;;;;;5071794;28;20047;-58
2023/03/02 01:46:26;;;;;;;12.75;7.47;;;2.30;99.90;;;;;;5072417;28;20110;-58
2023/03/02 01:49:10;;;;;;;13.55;8.13;;;2.30;99.90;;;;;;5075589;28;20127;-58
2023/03/02 01:51:42;;;;;;;14.07;8.85;;;2.30;99.90;;;;;;5075109;28;20063;-58
2023/03/02 01:54:16;;;;;;;15.25;9.48;;;2.80;99.90;;;;;;5075578;28;20047;-60
2023/03/02 01:56:44;;;;;;;15.95;9.63;;;2.60;99.90;;;;;;5075220;28;20036;-59
2023/03/02 01:59:16;;;;;;;17.77;9.80;;;2.30;99.90;;;;;;5075132;28;20444;-58
2023/03/02 02:01:46;;;;;;;15.75;10.38;;;2.20;99.90;;;;;;5074090;28;20041;-58
2023/03/02 02:04:12;;;;;;;18.50;11.02;;;2.20;99.90;;;;;;5075114;28;20538;-58
2023/03/02 02:06:46;;;;;;;16.80;10.63;;;2.80;99.90;;;;;;5075085;28;20477;-58
2023/03/02 02:09:16;;;;;;;19.67;11.35;;;2.50;99.90;;;;;;5075209;28;20048;-58
2023/03/02 02:11:42;;;;;;;20.77;12.00;;;2.20;99.90;;;;;;5057055;28;20124;-58
2023/03/02 02:14:08;;;;;;;18.48;12.05;;;2.70;99.90;;;;;;5075010;28;20128;-58
2023/03/02 02:16:35;;;;;;;19.90;11.40;;;2.20;99.90;;;;;;5074782;28;20108;-57
2023/03/02 02:19:09;;;;;;;20.02;12.00;;;2.70;99.90;;;;;;5073409;28;20043;-57
2023/03/02 02:21:35;;;;;;;19.08;12.00;;;2.70;99.90;;;;;;5074814;28;20105;-58
2023/03/02 02:24:15;;;;;;;18.40;12.13;;;2.30;99.90;;;;;;5074831;28;20447;-57
2023/03/02 02:26:48;;;;;;;22.05;12.82;;;2.30;99.90;;;;;;5074755;28;20044;-58
2023/03/02 02:29:21;;;;;;;22.33;12.82;;;2.20;99.90;;;;;;5074720;28;20049;-58
2023/03/02 02:31:54;;;;;;;20.80;13.35;;;2.60;99.90;;;;;;5074879;28;20129;-58
2023/03/02 02:34:26;;;;;;;24.67;14.40;;;2.50;99.90;;;;;;5074767;28;20045;-58
2023/03/02 02:36:57;;;;;;;25.83;15.23;;;2.10;99.90;;;;;;5074471;28;20056;-58
2023/03/02 02:39:28;;;;;;;24.70;15.38;;;2.40;99.90;;;;;;5073259;28;20056;-58
2023/03/02 02:41:58;;;;;;;25.55;14.98;;;2.00;99.90;;;;;;5073171;28;20040;-58
2023/03/02 02:44:24;;;;;;;26.05;15.68;;;2.00;99.90;;;;;;5074465;28;20177;-58
2023/03/02 02:46:49;;;;;;;26.00;15.73;;;2.20;99.90;;;;;;5074134;28;20558;-58
2023/03/02 02:49:37;;;;;;;26.25;16.25;;;2.50;99.90;;;;;;5074288;28;20036;-58
2023/03/02 02:52:04;;;;;;;25.67;15.70;;;2.60;99.90;;;;;;5061457;28;20511;-58
2023/03/02 02:54:33;;;;;;;27.17;16.40;;;2.50;99.90;;;;;;5073973;28;20049;-58
2023/03/02 02:57:01;;;;;;;26.40;15.40;;;2.20;99.90;;;;;;5074088;28;20071;-58
2023/03/02 02:59:50;;;;;;;31.40;17.55;;;2.50;99.90;;;;;;5073252;28;20028;-58
2023/03/02 03:02:21;;;;;;;30.02;17.58;;;2.40;99.90;;;;;;5074021;28;20040;-58
2023/03/02 03:04:47;;;;;;;30.52;18.42;;;2.30;99.90;;;;;;5073067;28;20059;-59
2023/03/02 03:07:20;;;;;;;30.40;18.77;;;2.30;99.90;;;;;;5074290;28;20036;-59
2023/03/02 03:09:54;;;;;;;29.75;18.02;;;2.30;99.90;;;;;;5072837;28;20045;-58
2023/03/02 03:12:22;;;;;;;29.02;17.30;;;2.00;99.90;;;;;;5073821;28;20094;-58
2023/03/02 03:14:49;;;;;;;31.05;18.88;;;2.50;99.90;;;;;;5072483;28;20048;-59
2023/03/02 03:17:15;;;;;;;31.63;19.20;;;2.30;99.90;;;;;;5072400;28;20041;-58
2023/03/02 03:19:42;;;;;;;34.50;18.33;;;2.40;99.90;;;;;;5073519;28;20036;-59
2023/03/02 03:22:11;;;;;;;30.80;18.80;;;2.50;99.90;;;;;;5073677;28;20127;-59
2023/03/02 03:24:37;;;;;;;32.08;19.77;;;2.60;99.90;;;;;;5073888;28;20134;-58
2023/03/02 03:27:05;;;;;;;33.13;19.58;;;1.90;99.90;;;;;;5073459;28;20047;-59
2023/03/02 03:29:32;;;;;;;36.17;21.23;;;1.80;99.90;;;;;;5073608;28;20044;-58
2023/03/02 03:32:00;;;;;;;35.30;19.95;;;2.30;99.90;;;;;;5073476;28;20500;-58
2023/03/02 03:34:27;;;;;;;34.75;20.67;;;2.00;99.90;;;;;;5072214;28;20534;-58
2023/03/02 03:36:53;;;;;;;39.47;21.17;;;2.40;99.90;;;;;;5073601;28;20036;-58
2023/03/02 03:39:19;;;;;;;36.15;20.80;;;1.90;99.90;;;;;;5073483;28;20119;-58
2023/03/02 03:41:45;;;;;;;36.33;19.83;;;1.80;99.90;;;;;;5073284;28;20128;-59
2023/03/02 03:44:11;;;;;;;35.65;20.42;;;2.40;99.90;;;;;;5073209;28;20484;-59
2023/03/02 03:46:37;;;;;;;36.65;21.70;;;2.00;99.90;;;;;;5073301;28;20056;-58
2023/03/02 03:49:03;;;;;;;39.33;21.65;;;2.30;99.90;;;;;;5073336;28;20051;-58
2023/03/02 03:51:33;;;;;;;38.33;21.33;;;2.30;99.90;;;;;;5073089;28;20503;-58
2023/03/02 03:54:00;;;;;;;43.67;20.73;;;1.90;99.90;;;;;;5071544;28;20052;-59
2023/03/02 03:56:32;;;;;;;37.03;21.65;;;2.40;99.90;;;;;;5073047;28;20075;-58
2023/03/02 03:59:07;;;;;;;37.43;19.60;;;2.50;99.90;;;;;;5073312;28;20392;-59
2023/03/02 04:01:38;;;;;;;45.42;20.13;;;1.80;99.90;;;;;;5072938;28;20040;-59
2023/03/02 04:04:06;;;;;;;37.53;18.67;;;2.10;99.90;;;;;;5072839;28;20052;-58
2023/03/02 04:06:32;;;;;;;35.92;19.63;;;1.70;99.90;;;;;;5072884;28;20040;-58
2023/03/02 04:09:03;;;;;;;39.58;20.50;;;1.80;99.90;;;;;;5071319;28;20120;-58
2023/03/02 04:11:30;;;;;;;36.20;19.33;;;1.70;99.90;;;;;;5072612;28;20037;-58
2023/03/02 04:13:57;;;;;;;33.58;18.77;;;2.40;99.90;;;;;;5072594;28;20081;-58
2023/03/02 04:16:23;;;;;;;36.55;19.10;;;2.30;99.90;;;;;;5072702;28;20965;-58
2023/03/02 04:18:48;;;;;;;41.58;21.88;;;2.40;99.90;;;;;;5072599;28;20180;-59
2023/03/02 04:21:14;;;;;;;41.15;20.77;;;1.80;99.90;;;;;;5072611;28;20598;-58
2023/03/02 04:23:40;;;;;;;40.40;21.10;;;2.30;99.90;;;;;;5072369;28;20378;-58
2023/03/02 04:26:05;;;;;;;38.17;19.38;;;2.50;99.90;;;;;;5072690;28;20412;-58
2023/03/02 04:28:31;;;;;;;38.95;19.83;;;2.10;99.90;;;;;;5072500;28;20117;-58
2023/03/02 04:30:57;;;;;;;48.65;19.70;;;2.20;99.90;;;;;;5072563;28;20049;-58
2023/03/02 04:33:23;;;;;;;39.45;19.58;;;1.80;99.90;;;;;;5072343;28;20508;-58
2023/03/02 04:35:49;;;;;;;34.08;18.85;;;1.70;99.90;;;;;;5072169;28;20423;-58
2023/03/02 04:38:14;;;;;;;37.30;19.67;;;2.10;99.90;;;;;;5072073;28;20064;-59
2023/03/02 04:40:40;;;;;;;49.03;20.08;;;1.70;99.90;;;;;;5072168;28;20051;-58
2023/03/02 04:43:05;;;;;;;55.92;21.85;;;1.80;99.90;;;;;;5072250;28;20059;-58
2023/03/02 04:45:31;;;;;;;57.85;20.58;;;2.40;99.90;;;;;;5072058;28;20087;-58
2023/03/02 04:47:57;;;;;;;47.42;20.42;;;1.60;99.90;;;;;;5070989;28;20040;-59
2023/03/02 04:50:23;;;;;;;48.28;20.88;;;2.20;99.90;;;;;;5071980;28;20044;-58
2023/03/02 04:52:49;;;;;;;44.58;21.08;;;1.60;99.90;;;;;;5071745;28;20070;-58
2023/03/02 04:55:20;;;;;;;46.40;20.25;;;1.60;99.90;;;;;;5054151;28;20503;-58
2023/03/02 04:57:45;;;;;;;53.97;21.33;;;2.00;99.90;;;;;;5071030;28;20408;-60
2023/03/02 05:00:12;;;;;;;46.88;21.23;;;2.30;99.90;;;;;;5072170;28;20040;-59
2023/03/02 05:02:39;;;;;;;54.92;21.77;;;1.70;99.90;;;;;;5071981;28;20123;-59
2023/03/02 05:05:05;;;;;;;50.20;22.33;;;2.30;99.90;;;;;;5071932;28;20036;-58
2023/03/02 05:07:30;;;;;;;53.15;22.45;;;2.30;99.90;;;;;;5070510;28;20066;-58
2023/03/02 05:09:56;;;;;;;49.72;21.95;;;2.30;99.90;;;;;;5071846;28;20041;-58
2023/03/02 05:12:22;;;;;;;60.75;23.15;;;2.40;99.90;;;;;;5071902;28;20044;-59
2023/03/02 05:14:47;;;;;;;61.08;23.58;;;2.40;99.90;;;;;;5071690;28;20043;-59
2023/03/02 05:17:13;;;;;;;56.33;22.92;;;1.90;99.90;;;;;;5071275;28;20110;-58
2023/03/02 05:19:39;;;;;;;54.38;22.40;;;1.60;99.90;;;;;;5070331;28;20086;-58
2023/03/02 05:22:05;;;;;;;63.55;23.92;;;2.30;99.90;;;;;;5076496;28;20052;-58
2023/03/02 05:24:30;;;;;;;67.97;24.48;;;1.50;99.90;;;;;;5078561;28;20076;-58
2023/03/02 05:26:56;;;;;;;62.33;26.73;;;1.80;99.90;;;;;;5078443;28;20044;-58
2023/03/02 05:29:21;;;;;;;88.18;23.48;;;1.60;99.90;;;;;;5076973;28;20069;-58
2023/03/02 05:31:48;;;;;;;65.75;24.00;;;1.50;99.90;;;;;;5078421;28;20624;-58
2023/03/02 05:34:16;;;;;;;73.25;23.98;;;1.80;99.90;;;;;;5078140;28;20374;-58
2023/03/02 05:36:42;;;;;;;78.60;26.75;;;2.30;99.90;;;;;;5078266;28;20400;-58
2023/03/02 05:39:08;;;;;;;75.88;27.90;;;2.40;99.90;;;;;;5078427;28;20041;-58
2023/03/02 05:41:35;;;;;;;87.88;31.38;;;1.60;99.90;;;;;;5078489;28;20133;-58
2023/03/02 05:44:01;;;;;;;99.95;33.92;;;1.80;99.90;;;;;;5076900;28;20048;-58
2023/03/02 05:46:27;;;;;;;91.70;32.55;;;2.30;99.90;;;;;;5078008;28;20061;-55
2023/03/02 05:48:53;;;;;;;95.18;34.08;;;1.60;99.90;;;;;;5077944;28;20118;-58
2023/03/02 05:51:18;;;;;;;110.50;37.67;;;1.90;99.90;;;;;;5078215;28;20112;-58
2023/03/02 05:53:44;;;;;;;98.18;34.17;;;2.40;99.90;;;;;;5077972;28;20488;-58
2023/03/02 05:56:10;;;;;;;101.07;35.65;;;1.90;99.90;;;;;;5076870;28;20415;-57
2023/03/02 05:58:35;;;;;;;96.63;34.95;;;1.80;99.90;;;;;;5077889;28;20082;-58
2023/03/02 06:01:06;;;;;;;119.57;38.75;;;2.00;99.90;;;;;;5076546;28;20677;-58
2023/03/02 06:03:31;;;;;;;98.32;36.88;;;2.40;99.90;;;;;;5076432;28;20043;-58
2023/03/02 06:05:57;;;;;;;95.97;36.92;;;2.10;99.90;;;;;;5076390;28;20036;-58
2023/03/02 06:08:23;;;;;;;95.93;36.05;;;2.20;99.90;;;;;;5058471;28;20443;-58
2023/03/02 06:10:49;;;;;;;83.70;31.33;;;1.70;99.90;;;;;;5076736;28;20114;-58
2023/03/02 06:13:15;;;;;;;89.30;31.98;;;2.30;99.90;;;;;;5075098;28;20040;-58
2023/03/02 06:15:42;;;;;;;134.80;35.10;;;1.50;99.90;;;;;;5076361;28;20047;-58
2023/03/02 06:18:07;;;;;;;92.43;31.20;;;2.10;99.90;;;;;;5074946;28;20060;-58
2023/03/02 06:20:33;;;;;;;75.47;28.67;;;1.80;99.90;;;;;;5075007;28;20587;-57
2023/03/02 06:22:58;;;;;;;98.80;31.73;;;2.20;99.90;;;;;;5076289;28;20119;-58
2023/03/02 06:25:24;;;;;;;76.43;30.83;;;2.00;99.90;;;;;;5076342;28;20044;-58
2023/03/02 06:27:52;;;;;;;83.20;31.90;;;2.10;99.90;;;;;;5074926;28;20044;-58
2023/03/02 06:30:21;;;;;;;122.75;32.38;;;2.40;99.90;;;;;;5076308;28;20382;-58
2023/03/02 06:32:46;;;;;;;79.63;31.70;;;2.30;99.90;;;;;;5074563;28;20123;-58
2023/03/02 06:35:12;;;;;;;75.10;30.67;;;2.30;99.90;;;;;;5072769;28;20135;-58
2023/03/02 06:37:39;;;;;;;79.90;30.27;;;1.80;99.90;;;;;;5073017;28;20036;-58
2023/03/02 06:40:14;;;;;;;100.78;31.65;;;2.50;99.90;;;;;;5072870;28;20050;-58
2023/03/02 06:42:41;;;;;;;109.35;32.05;;;2.10;99.90;;;;;;5072851;28;20036;-58
2023/03/02 06:45:08;;;;;;;117.75;30.95;;;2.30;99.90;;;;;;5072523;28;20065;-58
2023/03/02 06:47:33;;;;;;;69.97;29.40;;;2.20;99.90;;;;;;5073196;28;20449;-58
2023/03/02 06:49:59;;;;;;;74.60;29.00;;;1.60;99.90;;;;;;5072368;28;20443;-59
2023/03/02 06:52:26;;;;;;;78.18;30.75;;;2.40;99.90;;;;;;5072737;28;20489;-58
2023/03/02 06:54:52;;;;;;;78.28;29.75;;;1.60;99.90;;;;;;5071203;28;20053;-58
2023/03/02 06:57:18;;;;;;;66.50;29.55;;;2.50;99.90;;;;;;5072748;28;20052;-58
2023/03/02 06:59:43;;;;;;;79.18;30.33;;;1.70;99.90;;;;;;5072557;28;20036;-58
2023/03/02 07:02:10;;;;;;;88.20;30.67;;;1.70;99.90;;;;;;5072331;28;20484;-58
2023/03/02 07:04:35;;;;;;;89.78;31.23;;;2.60;99.90;;;;;;5071197;28;20040;-58
2023/03/02 07:07:01;;;;;;;68.75;29.45;;;2.50;99.90;;;;;;5071386;28;20052;-58
2023/03/02 07:09:29;;;;;;;138.25;31.65;;;2.50;99.90;;;;;;5072000;28;20125;-58
2023/03/02 07:11:56;;;;;;;101.75;30.95;;;1.70;99.90;;;;;;5070446;28;20051;-58
2023/03/02 07:14:21;;;;;;;75.22;30.38;;;1.80;99.90;;;;;;5053782;28;20052;-56
2023/03/02 07:16:47;;;;;;;87.18;29.38;;;1.70;99.90;;;;;;5072303;28;20074;-58
2023/03/02 07:19:13;;;;;;;105.72;32.78;;;1.70;99.90;;;;;;5066310;28;20040;-57
2023/03/02 07:21:39;;;;;;;83.60;32.72;;;2.60;99.90;;;;;;5068986;28;20403;-58
2023/03/02 07:24:05;;;;;;;97.95;35.17;;;2.50;99.90;;;;;;5066944;28;20401;-58
2023/03/02 07:26:30;;;;;;;82.75;34.80;;;2.20;99.90;;;;;;5057299;28;20044;-57
2023/03/02 07:28:58;;;;;;;104.07;34.83;;;2.30;99.90;;;;;;5056032;28;20496;-58
2023/03/02 07:31:24;;;;;;;85.70;33.13;;;2.40;99.90;;;;;;5051386;28;20504;-57
2023/03/02 07:33:50;;;;;;;89.95;32.78;;;1.80;99.90;;;;;;5052677;28;20072;-57
2023/03/02 07:36:16;;;;;;;85.53;32.13;;;2.40;99.90;;;;;;5066911;28;20033;-58
2023/03/02 07:38:42;;;;;;;89.00;30.25;;;1.80;99.90;;;;;;5053113;28;20346;-57
2023/03/02 07:41:09;;;;;;;82.97;30.05;;;2.10;99.90;;;;;;5064166;28;20447;-58
2023/03/02 07:43:35;;;;;;;89.65;27.80;;;2.50;99.90;;;;;;5063784;28;20465;-57
2023/03/02 07:46:03;;;;;;;72.00;22.85;;;1.80;99.90;;;;;;5066157;28;20053;-58
2023/03/02 07:48:29;;;;;;;54.85;24.35;;;1.90;99.90;;;;;;5072706;28;20052;-57
2023/03/02 07:50:59;;;;;;;49.67;22.88;;;2.10;99.90;;;;;;5072893;28;20101;-58
2023/03/02 07:53:26;;;;;;;99.40;24.13;;;2.60;99.90;;;;;;5071506;28;20063;-56
2023/03/02 07:55:51;;;;;;;60.28;23.33;;;2.20;99.90;;;;;;5071345;28;20488;-58
2023/03/02 07:58:17;;;;;;;67.25;20.50;;;2.30;99.90;;;;;;5071228;28;20071;-57
2023/03/02 08:00:43;;;;;;;70.10;19.20;;;2.30;99.90;;;;;;5071178;28;20093;-58
2023/03/02 08:03:09;;;;;;;53.33;18.35;;;1.80;99.90;;;;;;5071155;28;20044;-58
2023/03/02 08:05:34;;;;;;;51.47;19.85;;;2.50;99.90;;;;;;5071201;28;20611;-58
2023/03/02 08:08:00;;;;;;;47.58;19.40;;;2.10;99.90;;;;;;5071369;28;20089;-58
2023/03/02 08:10:26;;;;;;;52.17;18.65;;;2.40;99.90;;;;;;5069968;28;20485;-57
2023/03/02 08:12:51;;;;;;;48.08;18.83;;;2.30;99.90;;;;;;5061096;28;20485;-57
2023/03/02 08:15:17;;;;;;;50.30;18.85;;;2.50;99.90;;;;;;5049768;28;20041;-58
2023/03/02 08:17:43;;;;;;;45.65;20.13;;;2.60;99.90;;;;;;5062927;28;20064;-57
2023/03/02 08:20:10;;;;;;;78.22;19.52;;;2.20;99.90;;;;;;5069584;28;20512;-58
2023/03/02 08:22:35;;;;;;;55.72;19.80;;;2.00;99.90;;;;;;5070878;28;20040;-60
2023/03/02 08:25:02;;;;;;;69.75;19.90;;;2.60;99.90;;;;;;5070501;28;20051;-58
2023/03/02 08:27:28;;;;;;;75.88;20.88;;;2.30;99.90;;;;;;5069501;28;20376;-60
2023/03/02 08:29:53;;;;;;;52.95;18.98;;;2.80;99.90;;;;;;5068122;28;20036;-57
2023/03/02 08:32:19;;;;;;;53.17;19.30;;;2.20;99.90;;;;;;5070259;28;20040;-58
2023/03/02 08:34:50;;;;;;;67.70;21.50;;;2.10;99.90;;;;;;5070400;28;20082;-57
2023/03/02 08:37:15;;;;;;;67.97;21.17;;;2.90;99.90;;;;;;5070217;28;20044;-58
2023/03/02 08:39:41;;;;;;;103.38;21.35;;;2.70;99.90;;;;;;5070704;28;20036;-58
2023/03/02 08:42:07;;;;;;;54.03;20.27;;;2.80;99.90;;;;;;5070578;28;20040;-58
2023/03/02 08:44:32;;;;;;;71.57;18.30;;;2.80;99.90;;;;;;5066092;28;20047;-58
2023/03/02 08:46:58;;;;;;;44.75;18.00;;;2.90;99.90;;;;;;5059839;28;20474;-58
2023/03/02 08:49:24;;;;;;;43.35;17.85;;;2.90;99.90;;;;;;5057844;28;20444;-57
2023/03/02 08:51:52;;;;;;;33.10;15.23;;;2.10;99.90;;;;;;5069268;28;20051;-58
2023/03/02 08:54:19;;;;;;;32.95;16.30;;;2.50;99.90;;;;;;5070617;28;20268;-58
2023/03/02 08:56:45;;;;;;;35.42;14.55;;;2.20;99.90;;;;;;5069182;28;20528;-58
2023/03/02 08:59:12;;;;;;;31.30;15.63;;;2.60;99.90;;;;;;5070803;28;20036;-57
2023/03/02 09:01:39;;;;;;;33.33;15.48;;;2.30;99.90;;;;;;5070439;28;20497;-57
2023/03/02 09:04:06;;;;;;;34.13;16.38;;;2.50;99.90;;;;;;5068959;28;20097;-58
2023/03/02 09:06:35;;;;;;;34.42;14.82;;;2.70;99.90;;;;;;5056309;28;20071;-58
2023/03/02 09:09:00;;;;;;;34.50;15.30;;;3.00;99.90;;;;;;5061299;28;20040;-58
2023/03/02 09:11:26;;;;;;;31.42;14.65;;;2.70;99.90;;;;;;5069498;28;20075;-57
2023/03/02 09:13:53;;;;;;;33.45;14.80;;;2.40;99.90;;;;;;5069535;28;20036;-58
2023/03/02 09:16:19;;;;;;;49.70;16.17;;;2.50;99.90;;;;;;5062526;28;20116;-58
2023/03/02 09:18:46;;;;;;;37.67;16.00;;;2.50;99.90;;;;;;5070048;28;20047;-57
2023/03/02 09:21:11;;;;;;;33.75;15.80;;;2.90;99.90;;;;;;5069782;28;20114;-58
2023/03/02 09:23:37;;;;;;;29.27;14.95;;;3.10;99.90;;;;;;5069961;28;20536;-58
2023/03/02 09:26:03;;;;;;;33.25;14.77;;;2.50;99.90;;;;;;5070251;28;20048;-59
2023/03/02 09:28:29;;;;;;;34.72;14.80;;;3.00;99.90;;;;;;5069878;28;20033;-58
2023/03/02 09:31:01;;;;;;;32.90;14.88;;;3.00;99.90;;;;;;5058970;28;20476;-58
2023/03/02 09:33:28;;;;;;;35.10;15.07;;;2.60;99.90;;;;;;5068487;28;20053;-58
2023/03/02 09:35:54;;;;;;;36.40;16.38;;;2.60;99.90;;;;;;5069718;28;20210;-58
2023/03/02 09:38:20;;;;;;;36.70;16.13;;;3.10;99.90;;;;;;5069612;28;20554;-58
2023/03/02 09:40:48;;;;;;;33.15;15.68;;;3.00;99.90;;;;;;5069405;28;20127;-58
2023/03/02 09:43:51;;;;;;;33.25;14.82;;;3.00;99.90;;;;;;5068842;28;20041;-56
2023/03/02 09:46:29;;;;;;;29.98;13.90;;;2.80;99.90;;;;;;5059924;28;20109;-62
2023/03/02 09:49:11;;;;;;;28.77;14.25;;;2.90;99.90;;;;;;5063292;28;20101;-59
2023/03/02 09:51:46;;;;;;;30.47;15.27;;;3.20;99.90;;;;;;5064020;28;20040;-61
2023/03/02 09:54:14;;;;;;;32.70;15.55;;;3.10;99.90;;;;;;5063667;28;20693;-61
2023/03/02 09:56:47;;;;;;;34.67;15.50;;;3.10;99.90;;;;;;5064547;28;20043;-55
2023/03/02 09:59:29;;;;;;;31.60;16.73;;;3.60;99.90;;;;;;5064114;28;20032;-57
2023/03/02 10:02:20;;;;;;;30.77;15.13;;;3.20;99.90;;;;;;5064143;28;20040;-57
2023/03/02 10:04:53;;;;;;;32.95;14.70;;;3.30;99.90;;;;;;5062994;28;20133;-57
2023/03/02 10:07:27;;;;;;;28.90;14.65;;;3.10;99.90;;;;;;5062695;28;20169;-57
2023/03/02 10:09:54;;;;;;;30.45;15.30;;;3.40;99.90;;;;;;5064714;28;20045;-57
2023/03/02 10:12:49;;;;;;;29.63;13.82;;;3.40;99.90;;;;;;5065202;28;20131;-58
2023/03/02 10:15:29;;;;;;;31.92;14.40;;;3.10;99.90;;;;;;5065791;28;20258;-57
2023/03/02 10:18:04;;;;;;;31.30;13.93;;;3.30;99.90;;;;;;5064434;28;20078;-57
2023/03/02 10:20:36;;;;;;;29.77;13.95;;;3.50;99.90;;;;;;5065964;28;20036;-56
2023/03/02 10:23:27;;;;;;;27.95;12.90;;;3.30;99.90;;;;;;5066080;28;20048;-57
2023/03/02 10:26:19;;;;;;;25.90;12.68;;;3.40;99.90;;;;;;5065580;28;20132;-59
2023/03/02 10:28:55;;;;;;;24.38;11.73;;;3.90;99.90;;;;;;5064533;28;20086;-57
2023/03/02 10:31:28;;;;;;;28.13;13.02;;;4.00;99.90;;;;;;5064387;28;20072;-57
2023/03/02 10:33:54;;;;;;;28.58;12.70;;;4.00;99.90;;;;;;5065874;28;20052;-57
2023/03/02 10:36:26;;;;;;;29.75;14.00;;;4.00;99.90;;;;;;5066211;28;20036;-57
2023/03/02 10:38:56;;;;;;;26.38;14.50;;;4.20;99.90;;;;;;5065965;28;20029;-57
2023/03/02 10:41:39;;;;;;;26.52;13.77;;;4.20;99.90;;;;;;5065424;28;20030;-57
2023/03/02 10:44:23;;;;;;;27.52;13.50;;;4.30;99.90;;;;;;5065350;28;20039;-57
2023/03/02 10:46:52;;;;;;;27.38;13.55;;;4.30;99.90;;;;;;5063692;28;20055;-58
2023/03/02 10:49:30;;;;;;;27.77;13.40;;;4.50;99.90;;;;;;5066081;28;20048;-57
2023/03/02 10:52:11;;;;;;;29.20;13.48;;;4.30;99.90;;;;;;5064246;28;20079;-56
2023/03/02 10:54:36;;;;;;;26.50;13.82;;;4.50;99.90;;;;;;5066456;28;20056;-56
2023/03/02 10:57:15;;;;;;;27.33;13.20;;;4.80;99.90;;;;;;5066645;28;20037;-56
2023/03/02 10:59:46;;;;;;;23.67;11.68;;;4.80;99.90;;;;;;5066953;28;20039;-55
2023/03/02 11:02:23;;;;;;;24.83;12.38;;;4.90;99.90;;;;;;5067222;28;20033;-56
2023/03/02 11:05:12;;;;;;;24.88;13.07;;;5.20;99.90;;;;;;5066041;28;20310;-57
2023/03/02 11:07:38;;;;;;;24.65;11.63;;;5.10;99.90;;;;;;5066349;28;20098;-56
2023/03/02 11:10:18;;;;;;;25.60;12.68;;;5.50;99.90;;;;;;5066112;28;20481;-56
2023/03/02 11:12:46;;;;;;;25.00;12.68;;;5.20;99.90;;;;;;5066100;28;20041;-56
2023/03/02 11:15:24;;;;;;;26.27;13.63;;;5.30;99.90;;;;;;5066431;28;20033;-56
2023/03/02 11:17:54;;;;;;;28.00;14.30;;;5.00;99.90;;;;;;5066062;28;20094;-56
2023/03/02 11:20:27;;;;;;;30.85;14.68;;;5.10;99.90;;;;;;5065147;28;20029;-56
2023/03/02 11:23:25;;;;;;;32.47;14.60;;;4.70;99.90;;;;;;5066022;28;20059;-56
2023/03/02 11:25:55;;;;;;;31.20;15.80;;;4.70;99.90;;;;;;5062439;28;20080;-57
2023/03/02 11:28:36;;;;;;;40.20;18.10;;;4.80;99.90;;;;;;5064051;28;20079;-57
2023/03/02 11:31:06;;;;;;;43.05;19.08;;;5.10;99.90;;;;;;5065640;28;20052;-57
2023/03/02 11:33:42;;;;;;;44.83;20.70;;;5.00;99.90;;;;;;5065976;28;20489;-56
2023/03/02 11:36:16;;;;;;;45.22;19.20;;;4.90;99.90;;;;;;5065429;28;20048;-56
2023/03/02 11:38:49;;;;;;;45.28;20.02;;;5.20;99.90;;;;;;5067187;28;20045;-58
2023/03/02 11:41:28;;;;;;;37.75;17.98;;;5.20;99.90;;;;;;5065033;28;20028;-59
2023/03/02 11:44:05;;;;;;;44.95;20.33;;;5.30;99.90;;;;;;5064608;28;20044;-57
2023/03/02 11:46:32;;;;;;;37.97;19.08;;;5.30;99.90;;;;;;5065107;28;20092;-56
2023/03/02 11:49:06;;;;;;;33.80;17.60;;;5.40;99.90;;;;;;5064744;28;20079;-56
2023/03/02 11:51:37;;;;;;;31.58;16.23;;;5.50;99.90;;;;;;5065220;28;20055;-56
2023/03/02 11:54:11;;;;;;;31.30;15.83;;;5.70;99.90;;;;;;5065956;28;20048;-57
2023/03/02 11:56:38;;;;;;;29.73;14.68;;;5.80;99.90;;;;;;5065593;28;20054;-57
2023/03/02 11:59:15;;;;;;;31.95;15.68;;;6.10;99.90;;;;;;5064323;28;20097;-57
2023/03/02 12:01:44;;;;;;;29.58;15.25;;;6.20;99.90;;;;;;5065739;28;21128;-58
2023/03/02 12:04:42;;;;;;;27.45;14.90;;;6.20;99.90;;;;;;5065495;28;20045;-57
2023/03/02 12:07:24;;;;;;;24.02;12.90;;;6.30;99.90;;;;;;5029132;28;20132;-58
2023/03/02 12:10:27;;;;;;;23.92;12.25;;;6.40;99.90;;;;;;5064996;28;20036;-57
2023/03/02 12:13:13;;;;;;;23.38;11.52;;;6.30;99.90;;;;;;5009235;28;20057;-57
2023/03/02 12:15:45;;;;;;;23.05;11.40;;;6.20;99.90;;;;;;5064984;28;20040;-57
2023/03/02 12:18:20;;;;;;;;;;;6.40;99.90;;;;;;5065572;28;20040;-57
2023/03/02 12:21:07;;;;;;;21.38;11.40;;;6.50;99.90;;;;;;5063797;28;19916;-57
2023/03/02 12:23:39;;;;;;;18.67;10.68;;;6.50;99.90;;;;;;5064831;28;20040;-59
2023/03/02 12:26:23;;;;;;;19.15;10.80;;;6.20;99.90;;;;;;5064840;28;20714;-57
2023/03/02 12:29:07;;;;;;;19.45;11.02;;;6.20;99.90;;;;;;5062021;28;20101;-58
2023/03/02 12:31:39;;;;;;;18.83;9.45;;;6.10;99.90;;;;;;5064972;28;20066;-58
2023/03/02 12:34:23;;;;;;;20.05;11.32;;;5.90;99.90;;;;;;5065110;28;20040;-58
2023/03/02 12:36:52;;;;;;;21.10;10.85;;;5.90;99.90;;;;;;5064068;28;20044;-57
2023/03/02 12:39:27;;;;;;;19.77;10.75;;;6.10;99.90;;;;;;5064347;28;20036;-57
2023/03/02 12:42:04;;;;;;;21.17;11.57;;;6.10;99.90;;;;;;5064624;28;20064;-57
2023/03/02 12:44:46;;;;;;;19.05;10.95;;;6.10;99.90;;;;;;5064054;28;20040;-57
2023/03/02 12:47:25;;;;;;;19.92;11.77;;;5.70;99.90;;;;;;5063786;28;20066;-58
2023/03/02 12:49:54;;;;;;;21.05;12.98;;;5.70;99.90;;;;;;5063204;28;20056;-57